East Union, Washington
Current Conditions -  °F | °C
As of 7:53 PM on Friday 28 Nov 2014 (Local Time) from KBFI Reporting Station
Light Rain Light Rain  
Wind Chill:   Ceiling: 2200
Heat Index:   Visibility: 6mi
Dew Point:   Wind: 8mph
Humidity: 82%   Direction: 150°SSE
Pressure: 29.52"   Gusts: NA
Location:  47.6108°N, 122.302°W
Report Text: KBFI 290353Z 15007KT 6SM -RA FEW010 BKN022 OVC049 05/02 A2952 RMK AO2 SLP997 P0001 T00500022
Loading
Personal Weather Stations






























Interactive Weather Map New forecast layout! Learn more

10-Day Weather Forecast

Advertisements
Track Severe Weather on mobile